Terminal Aerodrome Forecast
Issued by NWS Cleveland, OH

Home | Current Version | Previous Version | Text Only | Print | Product List | Glossary On
Versions: 1 2 3 4 5 6 7 8 9 10 11 12 13 14 15 16 17
000
FTUS41 KCLE 221246 AAA
TAFYNG
TAF AMD
KYNG 221246Z 2213/2312 18004KT 3/4SM -SHRA BR OVC003
      TEMPO 2213/2214 2SM -SHRA
     FM221400 19004KT 2SM -RA VCTS OVC005CB
     FM221600 19005KT P6SM VCSH OVC015
     FM222100 22006KT P6SM -SHRA VCTS SCT025CB OVC040
     FM230200 26007KT P6SM SCT030 BKN080
     FM230900 22004KT 6SM BR SCT007 BKN012=

USA.gov is the U.S. government's official web portal to all federal, state and local government web resources and services.